sensor_id;sensor_type;location;lat;lon;timestamp;temperature;humidity
7296;DHT22;40758;54.038;11.684;2022-12-18T00:01:40;-5.80;99.90
7296;DHT22;40758;54.038;11.684;2022-12-18T00:04:16;-5.90;99.90
7296;DHT22;40758;54.038;11.684;2022-12-18T00:06:50;-6.00;99.90
7296;DHT22;40758;54.038;11.684;2022-12-18T00:09:19;-6.10;99.90
7296;DHT22;40758;54.038;11.684;2022-12-18T00:11:50;-6.10;99.90
7296;DHT22;40758;54.038;11.684;2022-12-18T00:14:19;-6.00;99.90
7296;DHT22;40758;54.038;11.684;2022-12-18T00:16:48;-6.10;99.90
7296;DHT22;40758;54.038;11.684;2022-12-18T00:19:18;-6.10;99.90
7296;DHT22;40758;54.038;11.684;2022-12-18T00:21:47;-6.20;99.90
7296;DHT22;40758;54.038;11.684;2022-12-18T00:24:20;-6.10;99.90
7296;DHT22;40758;54.038;11.684;2022-12-18T00:26:49;-6.00;99.90
7296;DHT22;40758;54.038;11.684;2022-12-18T00:29:18;-6.00;99.90
7296;DHT22;40758;54.038;11.684;2022-12-18T00:31:47;-6.00;99.90
7296;DHT22;40758;54.038;11.684;2022-12-18T00:34:17;-6.10;99.90
7296;DHT22;40758;54.038;11.684;2022-12-18T00:36:47;-6.00;99.90
7296;DHT22;40758;54.038;11.684;2022-12-18T00:39:16;-6.00;99.90
7296;DHT22;40758;54.038;11.684;2022-12-18T00:41:45;-5.90;99.90
7296;DHT22;40758;54.038;11.684;2022-12-18T00:44:31;-5.90;99.90
7296;DHT22;40758;54.038;11.684;2022-12-18T00:47:00;-5.90;99.90
7296;DHT22;40758;54.038;11.684;2022-12-18T00:49:30;-5.90;99.90
7296;DHT22;40758;54.038;11.684;2022-12-18T00:51:59;-5.90;99.90
7296;DHT22;40758;54.038;11.684;2022-12-18T00:54:28;-5.90;99.90
7296;DHT22;40758;54.038;11.684;2022-12-18T00:56:57;-6.00;99.90
7296;DHT22;40758;54.038;11.684;2022-12-18T00:59:29;-6.20;99.90
7296;DHT22;40758;54.038;11.684;2022-12-18T01:01:58;-6.10;99.90
7296;DHT22;40758;54.038;11.684;2022-12-18T01:04:28;-6.00;99.90
7296;DHT22;40758;54.038;11.684;2022-12-18T01:07:01;-5.90;99.90
7296;DHT22;40758;54.038;11.684;2022-12-18T01:09:30;-5.80;99.90
7296;DHT22;40758;54.038;11.684;2022-12-18T01:11:59;-5.60;99.90
7296;DHT22;40758;54.038;11.684;2022-12-18T01:14:28;-5.50;99.90
7296;DHT22;40758;54.038;11.684;2022-12-18T01:16:57;-5.60;99.90
7296;DHT22;40758;54.038;11.684;2022-12-18T01:19:25;-5.70;99.90
7296;DHT22;40758;54.038;11.684;2022-12-18T01:21:56;-5.60;99.90
7296;DHT22;40758;54.038;11.684;2022-12-18T01:24:25;-5.60;99.90
7296;DHT22;40758;54.038;11.684;2022-12-18T01:26:54;-5.70;99.90
7296;DHT22;40758;54.038;11.684;2022-12-18T01:29:24;-5.80;99.90
7296;DHT22;40758;54.038;11.684;2022-12-18T01:31:54;-5.90;99.90
7296;DHT22;40758;54.038;11.684;2022-12-18T01:34:24;-6.00;99.90
7296;DHT22;40758;54.038;11.684;2022-12-18T01:36:55;-6.20;99.90
7296;DHT22;40758;54.038;11.684;2022-12-18T01:39:23;-6.30;99.90
7296;DHT22;40758;54.038;11.684;2022-12-18T01:41:52;-6.40;99.90
7296;DHT22;40758;54.038;11.684;2022-12-18T01:45:20;-6.50;99.90
7296;DHT22;40758;54.038;11.684;2022-12-18T01:47:54;-6.50;99.90
7296;DHT22;40758;54.038;11.684;2022-12-18T01:50:30;-6.40;99.90
7296;DHT22;40758;54.038;11.684;2022-12-18T01:53:05;-6.40;99.90
7296;DHT22;40758;54.038;11.684;2022-12-18T01:55:43;-6.40;99.90
7296;DHT22;40758;54.038;11.684;2022-12-18T01:58:16;-6.50;99.90
7296;DHT22;40758;54.038;11.684;2022-12-18T02:00:45;-6.40;99.90
7296;DHT22;40758;54.038;11.684;2022-12-18T02:03:14;-6.30;99.90
7296;DHT22;40758;54.038;11.684;2022-12-18T02:05:45;-6.40;99.90
7296;DHT22;40758;54.038;11.684;2022-12-18T02:08:32;-6.40;99.90
7296;DHT22;40758;54.038;11.684;2022-12-18T02:11:10;-6.40;99.90
7296;DHT22;40758;54.038;11.684;2022-12-18T02:13:53;-6.50;99.90
7296;DHT22;40758;54.038;11.684;2022-12-18T02:16:35;-6.50;99.90
7296;DHT22;40758;54.038;11.684;2022-12-18T02:22:26;-6.40;99.90
7296;DHT22;40758;54.038;11.684;2022-12-18T02:25:13;-6.40;99.90
7296;DHT22;40758;54.038;11.684;2022-12-18T02:27:59;-6.30;99.90
7296;DHT22;40758;54.038;11.684;2022-12-18T02:30:31;-6.10;99.90
7296;DHT22;40758;54.038;11.684;2022-12-18T02:33:05;-6.10;99.90
7296;DHT22;40758;54.038;11.684;2022-12-18T02:35:42;-6.10;99.90
7296;DHT22;40758;54.038;11.684;2022-12-18T02:38:16;-6.20;99.90
7296;DHT22;40758;54.038;11.684;2022-12-18T02:40:46;-6.30;99.90
7296;DHT22;40758;54.038;11.684;2022-12-18T02:43:18;-6.40;99.90
7296;DHT22;40758;54.038;11.684;2022-12-18T02:45:55;-6.40;99.90
7296;DHT22;40758;54.038;11.684;2022-12-18T02:48:31;-6.40;99.90
7296;DHT22;40758;54.038;11.684;2022-12-18T02:51:06;-6.50;99.90
7296;DHT22;40758;54.038;11.684;2022-12-18T02:53:49;-6.60;99.90
7296;DHT22;40758;54.038;11.684;2022-12-18T02:56:25;-6.70;99.90
7296;DHT22;40758;54.038;11.684;2022-12-18T02:59:02;-6.90;99.90
7296;DHT22;40758;54.038;11.684;2022-12-18T03:01:46;-6.80;99.90
7296;DHT22;40758;54.038;11.684;2022-12-18T03:04:24;-6.70;99.90
7296;DHT22;40758;54.038;11.684;2022-12-18T03:07:01;-6.70;99.90
7296;DHT22;40758;54.038;11.684;2022-12-18T03:09:36;-6.90;99.90
7296;DHT22;40758;54.038;11.684;2022-12-18T03:12:17;-7.00;99.90
7296;DHT22;40758;54.038;11.684;2022-12-18T03:14:56;-7.10;99.90
7296;DHT22;40758;54.038;11.684;2022-12-18T03:17:31;-7.20;99.90
7296;DHT22;40758;54.038;11.684;2022-12-18T03:20:05;-7.40;99.90
7296;DHT22;40758;54.038;11.684;2022-12-18T03:22:39;-7.40;99.90
7296;DHT22;40758;54.038;11.684;2022-12-18T03:25:13;-7.50;99.90
7296;DHT22;40758;54.038;11.684;2022-12-18T03:27:48;-7.60;99.90
7296;DHT22;40758;54.038;11.684;2022-12-18T03:30:21;-7.60;99.90
7296;DHT22;40758;54.038;11.684;2022-12-18T03:32:53;-7.60;99.90
7296;DHT22;40758;54.038;11.684;2022-12-18T03:35:33;-7.50;99.90
7296;DHT22;40758;54.038;11.684;2022-12-18T03:38:06;-7.50;99.90
7296;DHT22;40758;54.038;11.684;2022-12-18T03:40:45;-7.40;99.90
7296;DHT22;40758;54.038;11.684;2022-12-18T03:43:34;-7.30;99.90
7296;DHT22;40758;54.038;11.684;2022-12-18T03:46:17;-7.30;99.90
7296;DHT22;40758;54.038;11.684;2022-12-18T03:48:59;-7.40;99.90
7296;DHT22;40758;54.038;11.684;2022-12-18T03:51:37;-7.30;99.90
7296;DHT22;40758;54.038;11.684;2022-12-18T03:54:13;-7.30;99.90
7296;DHT22;40758;54.038;11.684;2022-12-18T03:56:47;-7.40;99.90
7296;DHT22;40758;54.038;11.684;2022-12-18T03:59:22;-7.20;99.90
7296;DHT22;40758;54.038;11.684;2022-12-18T04:01:56;-7.10;99.90
7296;DHT22;40758;54.038;11.684;2022-12-18T04:04:28;-6.90;99.90
7296;DHT22;40758;54.038;11.684;2022-12-18T04:06:59;-6.80;99.90
7296;DHT22;40758;54.038;11.684;2022-12-18T04:09:33;-6.80;99.90
7296;DHT22;40758;54.038;11.684;2022-12-18T04:12:04;-6.80;99.90
7296;DHT22;40758;54.038;11.684;2022-12-18T04:14:33;-6.80;99.90
7296;DHT22;40758;54.038;11.684;2022-12-18T04:17:04;-6.90;99.90
7296;DHT22;40758;54.038;11.684;2022-12-18T04:19:33;-6.90;99.90
7296;DHT22;40758;54.038;11.684;2022-12-18T04:22:02;-6.80;99.90
7296;DHT22;40758;54.038;11.684;2022-12-18T04:24:31;-6.80;99.90
7296;DHT22;40758;54.038;11.684;2022-12-18T04:27:00;-6.70;99.90
7296;DHT22;40758;54.038;11.684;2022-12-18T04:29:32;-6.80;99.90
7296;DHT22;40758;54.038;11.684;2022-12-18T04:32:01;-6.80;99.90
7296;DHT22;40758;54.038;11.684;2022-12-18T04:34:31;-6.90;99.90
7296;DHT22;40758;54.038;11.684;2022-12-18T04:37:00;-7.00;99.90
7296;DHT22;40758;54.038;11.684;2022-12-18T04:39:29;-7.00;99.90
7296;DHT22;40758;54.038;11.684;2022-12-18T04:42:00;-6.90;99.90
7296;DHT22;40758;54.038;11.684;2022-12-18T04:44:32;-6.90;99.90
7296;DHT22;40758;54.038;11.684;2022-12-18T04:47:02;-7.10;99.90
7296;DHT22;40758;54.038;11.684;2022-12-18T04:49:32;-7.20;99.90
7296;DHT22;40758;54.038;11.684;2022-12-18T04:52:01;-7.30;99.90
7296;DHT22;40758;54.038;11.684;2022-12-18T04:54:30;-7.30;99.90
7296;DHT22;40758;54.038;11.684;2022-12-18T04:56:59;-7.30;99.90
7296;DHT22;40758;54.038;11.684;2022-12-18T04:59:28;-7.20;99.90
7296;DHT22;40758;54.038;11.684;2022-12-18T05:02:00;-7.20;99.90
7296;DHT22;40758;54.038;11.684;2022-12-18T05:04:30;-7.10;99.90
7296;DHT22;40758;54.038;11.684;2022-12-18T05:07:02;-7.10;99.90
7296;DHT22;40758;54.038;11.684;2022-12-18T05:09:32;-7.10;99.90
7296;DHT22;40758;54.038;11.684;2022-12-18T05:12:00;-7.10;99.90
7296;DHT22;40758;54.038;11.684;2022-12-18T05:14:29;-7.10;99.90
7296;DHT22;40758;54.038;11.684;2022-12-18T05:16:58;-7.10;99.90
7296;DHT22;40758;54.038;11.684;2022-12-18T05:19:27;-7.00;99.90
7296;DHT22;40758;54.038;11.684;2022-12-18T05:21:57;-7.00;99.90
7296;DHT22;40758;54.038;11.684;2022-12-18T05:24:26;-6.90;99.90
7296;DHT22;40758;54.038;11.684;2022-12-18T05:26:58;-6.80;99.90
7296;DHT22;40758;54.038;11.684;2022-12-18T05:29:27;-6.90;99.90
7296;DHT22;40758;54.038;11.684;2022-12-18T05:31:58;-6.80;99.90
7296;DHT22;40758;54.038;11.684;2022-12-18T05:34:33;-6.90;99.90
7296;DHT22;40758;54.038;11.684;2022-12-18T05:37:06;-7.00;99.90
7296;DHT22;40758;54.038;11.684;2022-12-18T05:39:43;-7.00;99.90
7296;DHT22;40758;54.038;11.684;2022-12-18T05:42:12;-7.10;99.90
7296;DHT22;40758;54.038;11.684;2022-12-18T05:44:44;-7.10;99.90
7296;DHT22;40758;54.038;11.684;2022-12-18T05:47:13;-7.10;99.90
7296;DHT22;40758;54.038;11.684;2022-12-18T05:49:42;-7.10;99.90
7296;DHT22;40758;54.038;11.684;2022-12-18T05:52:12;-7.10;99.90
7296;DHT22;40758;54.038;11.684;2022-12-18T05:54:41;-7.10;99.90
7296;DHT22;40758;54.038;11.684;2022-12-18T05:57:13;-7.10;99.90
7296;DHT22;40758;54.038;11.684;2022-12-18T05:59:42;-7.00;99.90
7296;DHT22;40758;54.038;11.684;2022-12-18T06:02:10;-7.10;99.90
7296;DHT22;40758;54.038;11.684;2022-12-18T06:04:40;-7.00;99.90
7296;DHT22;40758;54.038;11.684;2022-12-18T06:07:13;-7.10;99.90
7296;DHT22;40758;54.038;11.684;2022-12-18T06:09:42;-7.20;99.90
7296;DHT22;40758;54.038;11.684;2022-12-18T06:12:14;-7.20;99.90
7296;DHT22;40758;54.038;11.684;2022-12-18T06:14:43;-7.20;99.90
7296;DHT22;40758;54.038;11.684;2022-12-18T06:17:12;-7.10;99.90
7296;DHT22;40758;54.038;11.684;2022-12-18T06:19:41;-7.10;99.90
7296;DHT22;40758;54.038;11.684;2022-12-18T06:22:10;-6.90;99.90
7296;DHT22;40758;54.038;11.684;2022-12-18T06:24:43;-6.90;99.90
7296;DHT22;40758;54.038;11.684;2022-12-18T06:27:12;-6.80;99.90
7296;DHT22;40758;54.038;11.684;2022-12-18T06:29:41;-6.70;99.90
7296;DHT22;40758;54.038;11.684;2022-12-18T06:32:13;-6.70;99.90
7296;DHT22;40758;54.038;11.684;2022-12-18T06:34:42;-6.60;99.90
7296;DHT22;40758;54.038;11.684;2022-12-18T06:37:11;-6.60;99.90
7296;DHT22;40758;54.038;11.684;2022-12-18T06:39:41;-6.60;99.90
7296;DHT22;40758;54.038;11.684;2022-12-18T06:42:14;-6.70;99.90
7296;DHT22;40758;54.038;11.684;2022-12-18T06:44:43;-6.70;99.90
7296;DHT22;40758;54.038;11.684;2022-12-18T06:47:12;-6.80;99.90
7296;DHT22;40758;54.038;11.684;2022-12-18T06:49:40;-6.80;99.90
7296;DHT22;40758;54.038;11.684;2022-12-18T06:52:35;-6.90;99.90
7296;DHT22;40758;54.038;11.684;2022-12-18T06:55:16;-6.90;99.90
7296;DHT22;40758;54.038;11.684;2022-12-18T06:57:45;-6.90;99.90
7296;DHT22;40758;54.038;11.684;2022-12-18T07:00:14;-6.90;99.90
7296;DHT22;40758;54.038;11.684;2022-12-18T07:02:43;-7.00;99.90
7296;DHT22;40758;54.038;11.684;2022-12-18T07:05:12;-6.90;99.90
7296;DHT22;40758;54.038;11.684;2022-12-18T07:07:41;-6.90;99.90
7296;DHT22;40758;54.038;11.684;2022-12-18T07:10:13;-6.80;99.90
7296;DHT22;40758;54.038;11.684;2022-12-18T07:12:43;-6.80;99.90
7296;DHT22;40758;54.038;11.684;2022-12-18T07:15:12;-6.90;99.90
7296;DHT22;40758;54.038;11.684;2022-12-18T07:17:41;-6.90;99.90
7296;DHT22;40758;54.038;11.684;2022-12-18T07:20:12;-6.80;99.90
7296;DHT22;40758;54.038;11.684;2022-12-18T07:22:41;-6.80;99.90
7296;DHT22;40758;54.038;11.684;2022-12-18T07:25:13;-6.90;99.90
7296;DHT22;40758;54.038;11.684;2022-12-18T07:27:44;-7.10;99.90
7296;DHT22;40758;54.038;11.684;2022-12-18T07:30:13;-7.10;99.90
7296;DHT22;40758;54.038;11.684;2022-12-18T07:32:42;-7.10;99.90
7296;DHT22;40758;54.038;11.684;2022-12-18T07:35:11;-7.10;99.90
7296;DHT22;40758;54.038;11.684;2022-12-18T07:37:41;-7.00;99.90
7296;DHT22;40758;54.038;11.684;2022-12-18T07:40:12;-6.90;99.90
7296;DHT22;40758;54.038;11.684;2022-12-18T07:42:43;-6.80;99.90
7296;DHT22;40758;54.038;11.684;2022-12-18T07:45:14;-6.80;99.90
7296;DHT22;40758;54.038;11.684;2022-12-18T07:47:43;-6.80;99.90
7296;DHT22;40758;54.038;11.684;2022-12-18T07:50:15;-6.80;99.90
7296;DHT22;40758;54.038;11.684;2022-12-18T07:52:44;-6.80;99.90
7296;DHT22;40758;54.038;11.684;2022-12-18T07:55:13;-6.80;99.90
7296;DHT22;40758;54.038;11.684;2022-12-18T07:57:44;-6.70;99.90
7296;DHT22;40758;54.038;11.684;2022-12-18T08:00:20;-6.60;99.90
7296;DHT22;40758;54.038;11.684;2022-12-18T08:02:49;-6.60;99.90
7296;DHT22;40758;54.038;11.684;2022-12-18T08:05:18;-6.50;99.90
7296;DHT22;40758;54.038;11.684;2022-12-18T08:07:48;-6.50;99.90
7296;DHT22;40758;54.038;11.684;2022-12-18T08:10:17;-6.50;99.90
7296;DHT22;40758;54.038;11.684;2022-12-18T08:12:49;-6.30;99.90
7296;DHT22;40758;54.038;11.684;2022-12-18T08:15:18;-6.30;99.90
7296;DHT22;40758;54.038;11.684;2022-12-18T08:17:47;-6.30;99.90
7296;DHT22;40758;54.038;11.684;2022-12-18T08:20:16;-6.20;99.90
7296;DHT22;40758;54.038;11.684;2022-12-18T08:22:45;-6.20;99.90
7296;DHT22;40758;54.038;11.684;2022-12-18T08:25:14;-6.10;99.90
7296;DHT22;40758;54.038;11.684;2022-12-18T08:27:43;-6.00;99.90
7296;DHT22;40758;54.038;11.684;2022-12-18T08:30:13;-5.90;99.90
7296;DHT22;40758;54.038;11.684;2022-12-18T08:32:42;-5.90;99.90
7296;DHT22;40758;54.038;11.684;2022-12-18T08:35:14;-6.00;99.90
7296;DHT22;40758;54.038;11.684;2022-12-18T08:37:44;-6.00;99.90
7296;DHT22;40758;54.038;11.684;2022-12-18T08:40:13;-5.90;99.90
7296;DHT22;40758;54.038;11.684;2022-12-18T08:42:41;-5.80;99.90
7296;DHT22;40758;54.038;11.684;2022-12-18T08:45:29;-5.80;99.90
7296;DHT22;40758;54.038;11.684;2022-12-18T08:48:01;-5.80;99.90
7296;DHT22;40758;54.038;11.684;2022-12-18T08:50:31;-5.80;99.90
7296;DHT22;40758;54.038;11.684;2022-12-18T08:53:00;-5.70;99.90
7296;DHT22;40758;54.038;11.684;2022-12-18T08:55:29;-5.70;99.90
7296;DHT22;40758;54.038;11.684;2022-12-18T08:58:01;-5.70;99.90
7296;DHT22;40758;54.038;11.684;2022-12-18T09:00:32;-5.60;99.90
7296;DHT22;40758;54.038;11.684;2022-12-18T09:03:05;-5.60;99.90
7296;DHT22;40758;54.038;11.684;2022-12-18T09:05:50;-5.70;99.90
7296;DHT22;40758;54.038;11.684;2022-12-18T09:08:19;-5.70;99.90
7296;DHT22;40758;54.038;11.684;2022-12-18T09:10:49;-5.70;99.90
7296;DHT22;40758;54.038;11.684;2022-12-18T09:13:22;-5.70;99.90
7296;DHT22;40758;54.038;11.684;2022-12-18T09:15:54;-5.70;99.90
7296;DHT22;40758;54.038;11.684;2022-12-18T09:18:25;-5.70;99.90
7296;DHT22;40758;54.038;11.684;2022-12-18T09:20:54;-5.70;99.90
7296;DHT22;40758;54.038;11.684;2022-12-18T09:23:23;-5.60;99.90
7296;DHT22;40758;54.038;11.684;2022-12-18T09:25:58;-5.50;99.90
7296;DHT22;40758;54.038;11.684;2022-12-18T09:28:28;-5.40;99.90
7296;DHT22;40758;54.038;11.684;2022-12-18T09:31:03;-5.40;99.90
7296;DHT22;40758;54.038;11.684;2022-12-18T09:33:36;-5.40;99.90
7296;DHT22;40758;54.038;11.684;2022-12-18T09:36:17;-5.30;99.90
7296;DHT22;40758;54.038;11.684;2022-12-18T09:38:47;-5.10;99.90
7296;DHT22;40758;54.038;11.684;2022-12-18T09:41:34;-5.00;99.90
7296;DHT22;40758;54.038;11.684;2022-12-18T09:44:28;-4.80;99.90
7296;DHT22;40758;54.038;11.684;2022-12-18T09:47:17;-4.70;99.90
7296;DHT22;40758;54.038;11.684;2022-12-18T09:49:54;-4.70;99.90
7296;DHT22;40758;54.038;11.684;2022-12-18T09:52:30;-4.70;99.90
7296;DHT22;40758;54.038;11.684;2022-12-18T09:55:15;-4.60;99.90
7296;DHT22;40758;54.038;11.684;2022-12-18T09:57:53;-4.60;99.90
7296;DHT22;40758;54.038;11.684;2022-12-18T10:00:26;-4.50;99.90
7296;DHT22;40758;54.038;11.684;2022-12-18T10:03:02;-4.40;99.90
7296;DHT22;40758;54.038;11.684;2022-12-18T10:05:46;-4.40;99.90
7296;DHT22;40758;54.038;11.684;2022-12-18T10:08:37;-4.40;99.90
7296;DHT22;40758;54.038;11.684;2022-12-18T10:11:26;-4.40;99.90
7296;DHT22;40758;54.038;11.684;2022-12-18T10:14:18;-4.20;99.90
7296;DHT22;40758;54.038;11.684;2022-12-18T10:17:01;-4.30;99.90
7296;DHT22;40758;54.038;11.684;2022-12-18T10:19:52;-4.40;99.90
7296;DHT22;40758;54.038;11.684;2022-12-18T10:22:43;-4.40;99.90
7296;DHT22;40758;54.038;11.684;2022-12-18T10:25:22;-4.40;99.90
7296;DHT22;40758;54.038;11.684;2022-12-18T10:27:57;-4.20;99.90
7296;DHT22;40758;54.038;11.684;2022-12-18T10:30:29;-3.60;99.90
7296;DHT22;40758;54.038;11.684;2022-12-18T10:33:01;-3.10;99.90
7296;DHT22;40758;54.038;11.684;2022-12-18T10:35:31;-2.70;99.90
7296;DHT22;40758;54.038;11.684;2022-12-18T10:38:21;-2.40;99.90
7296;DHT22;40758;54.038;11.684;2022-12-18T10:41:05;-2.10;99.90
7296;DHT22;40758;54.038;11.684;2022-12-18T10:43:39;-1.70;99.90
7296;DHT22;40758;54.038;11.684;2022-12-18T10:46:14;-1.80;99.90
7296;DHT22;40758;54.038;11.684;2022-12-18T10:48:53;-2.00;99.90
7296;DHT22;40758;54.038;11.684;2022-12-18T10:51:28;-2.10;99.90
7296;DHT22;40758;54.038;11.684;2022-12-18T10:54:05;-1.80;99.90
7296;DHT22;40758;54.038;11.684;2022-12-18T10:56:45;-1.50;99.90
7296;DHT22;40758;54.038;11.684;2022-12-18T10:59:17;-1.20;99.90
7296;DHT22;40758;54.038;11.684;2022-12-18T11:01:51;-1.20;99.90
7296;DHT22;40758;54.038;11.684;2022-12-18T11:04:27;-1.40;99.90
7296;DHT22;40758;54.038;11.684;2022-12-18T11:07:04;-2.00;99.90
7296;DHT22;40758;54.038;11.684;2022-12-18T11:09:42;-2.40;99.90
7296;DHT22;40758;54.038;11.684;2022-12-18T11:12:17;-2.40;99.90
7296;DHT22;40758;54.038;11.684;2022-12-18T11:14:48;-2.50;99.90
7296;DHT22;40758;54.038;11.684;2022-12-18T11:17:21;-2.30;99.90
7296;DHT22;40758;54.038;11.684;2022-12-18T11:20:03;-2.20;99.90
7296;DHT22;40758;54.038;11.684;2022-12-18T11:22:57;-2.40;99.90
7296;DHT22;40758;54.038;11.684;2022-12-18T11:25:30;-2.50;99.90
7296;DHT22;40758;54.038;11.684;2022-12-18T11:28:03;-2.80;99.90
7296;DHT22;40758;54.038;11.684;2022-12-18T11:30:43;-2.80;99.90
7296;DHT22;40758;54.038;11.684;2022-12-18T11:33:15;-2.50;99.90
7296;DHT22;40758;54.038;11.684;2022-12-18T11:35:59;-2.40;99.90
7296;DHT22;40758;54.038;11.684;2022-12-18T11:38:35;-2.00;99.90
7296;DHT22;40758;54.038;11.684;2022-12-18T11:41:14;-1.90;99.90
7296;DHT22;40758;54.038;11.684;2022-12-18T11:43:54;-1.90;99.90
7296;DHT22;40758;54.038;11.684;2022-12-18T11:46:34;-1.80;99.90
7296;DHT22;40758;54.038;11.684;2022-12-18T11:49:14;-1.90;99.90
7296;DHT22;40758;54.038;11.684;2022-12-18T11:51:51;-2.30;99.90
7296;DHT22;40758;54.038;11.684;2022-12-18T11:54:29;-2.70;99.90
7296;DHT22;40758;54.038;11.684;2022-12-18T11:57:03;-2.90;99.90
7296;DHT22;40758;54.038;11.684;2022-12-18T11:59:50;-2.90;99.90
7296;DHT22;40758;54.038;11.684;2022-12-18T12:05:55;-2.50;99.90
7296;DHT22;40758;54.038;11.684;2022-12-18T12:08:39;-2.00;99.90
7296;DHT22;40758;54.038;11.684;2022-12-18T12:11:26;-1.50;99.90
7296;DHT22;40758;54.038;11.684;2022-12-18T12:14:24;-1.20;99.90
7296;DHT22;40758;54.038;11.684;2022-12-18T12:17:17;-1.20;99.90
7296;DHT22;40758;54.038;11.684;2022-12-18T12:20:00;-1.40;99.90
7296;DHT22;40758;54.038;11.684;2022-12-18T12:22:48;-1.60;99.90
7296;DHT22;40758;54.038;11.684;2022-12-18T12:25:33;-1.80;99.90
7296;DHT22;40758;54.038;11.684;2022-12-18T12:28:23;-2.20;99.90
7296;DHT22;40758;54.038;11.684;2022-12-18T12:31:14;-2.20;99.90
7296;DHT22;40758;54.038;11.684;2022-12-18T12:33:59;-2.40;99.90
7296;DHT22;40758;54.038;11.684;2022-12-18T12:36:52;-2.60;99.90
7296;DHT22;40758;54.038;11.684;2022-12-18T12:39:43;-2.80;99.90
7296;DHT22;40758;54.038;11.684;2022-12-18T12:42:21;-2.90;99.90
7296;DHT22;40758;54.038;11.684;2022-12-18T12:45:19;-3.10;99.90
7296;DHT22;40758;54.038;11.684;2022-12-18T12:48:07;-3.10;99.90
7296;DHT22;40758;54.038;11.684;2022-12-18T12:50:46;-3.20;99.90
7296;DHT22;40758;54.038;11.684;2022-12-18T12:53:34;-3.10;99.90
7296;DHT22;40758;54.038;11.684;2022-12-18T12:56:20;-3.10;99.90
7296;DHT22;40758;54.038;11.684;2022-12-18T12:59:26;-3.10;99.90
7296;DHT22;40758;54.038;11.684;2022-12-18T13:02:35;-3.00;99.90
7296;DHT22;40758;54.038;11.684;2022-12-18T13:05:33;-2.90;99.90
7296;DHT22;40758;54.038;11.684;2022-12-18T13:08:12;-2.90;99.90
7296;DHT22;40758;54.038;11.684;2022-12-18T13:11:03;-2.90;99.90
7296;DHT22;40758;54.038;11.684;2022-12-18T13:13:56;-2.90;99.90
7296;DHT22;40758;54.038;11.684;2022-12-18T13:16:28;-2.90;99.90
7296;DHT22;40758;54.038;11.684;2022-12-18T13:19:25;-3.10;99.90
7296;DHT22;40758;54.038;11.684;2022-12-18T13:22:31;-3.10;99.90
7296;DHT22;40758;54.038;11.684;2022-12-18T13:25:44;-3.30;99.90
7296;DHT22;40758;54.038;11.684;2022-12-18T13:28:14;-3.40;99.90
7296;DHT22;40758;54.038;11.684;2022-12-18T13:30:50;-3.50;99.90
7296;DHT22;40758;54.038;11.684;2022-12-18T13:33:48;-3.60;99.90
7296;DHT22;40758;54.038;11.684;2022-12-18T13:40:56;-3.60;99.90
7296;DHT22;40758;54.038;11.684;2022-12-18T13:43:38;-3.60;99.90
7296;DHT22;40758;54.038;11.684;2022-12-18T13:46:24;-3.60;99.90
7296;DHT22;40758;54.038;11.684;2022-12-18T13:49:21;-3.60;99.90
7296;DHT22;40758;54.038;11.684;2022-12-18T13:52:16;-3.50;99.90
7296;DHT22;40758;54.038;11.684;2022-12-18T13:54:51;-3.60;99.90
7296;DHT22;40758;54.038;11.684;2022-12-18T13:57:36;-3.60;99.90
7296;DHT22;40758;54.038;11.684;2022-12-18T14:00:27;-3.60;99.90
7296;DHT22;40758;54.038;11.684;2022-12-18T14:03:22;-3.60;99.90
7296;DHT22;40758;54.038;11.684;2022-12-18T14:06:05;-3.60;99.90
7296;DHT22;40758;54.038;11.684;2022-12-18T14:08:40;-3.60;99.90
7296;DHT22;40758;54.038;11.684;2022-12-18T14:11:20;-3.70;99.90
7296;DHT22;40758;54.038;11.684;2022-12-18T14:13:57;-3.70;99.90
7296;DHT22;40758;54.038;11.684;2022-12-18T14:16:27;-3.70;99.90
7296;DHT22;40758;54.038;11.684;2022-12-18T14:19:00;-3.80;99.90
7296;DHT22;40758;54.038;11.684;2022-12-18T14:21:45;-3.80;99.90
7296;DHT22;40758;54.038;11.684;2022-12-18T14:24:18;-3.90;99.90
7296;DHT22;40758;54.038;11.684;2022-12-18T14:27:13;-3.90;99.90
7296;DHT22;40758;54.038;11.684;2022-12-18T14:29:51;-3.90;99.90
7296;DHT22;40758;54.038;11.684;2022-12-18T14:32:29;-3.90;99.90
7296;DHT22;40758;54.038;11.684;2022-12-18T14:35:13;-3.90;99.90
7296;DHT22;40758;54.038;11.684;2022-12-18T14:37:45;-4.00;99.90
7296;DHT22;40758;54.038;11.684;2022-12-18T14:40:35;-4.00;99.90
7296;DHT22;40758;54.038;11.684;2022-12-18T14:43:20;-4.00;99.90
7296;DHT22;40758;54.038;11.684;2022-12-18T14:46:02;-4.10;99.90
7296;DHT22;40758;54.038;11.684;2022-12-18T14:48:39;-4.10;99.90
7296;DHT22;40758;54.038;11.684;2022-12-18T14:51:16;-4.10;99.90
7296;DHT22;40758;54.038;11.684;2022-12-18T14:53:58;-4.10;99.90
7296;DHT22;40758;54.038;11.684;2022-12-18T14:56:31;-4.10;99.90
7296;DHT22;40758;54.038;11.684;2022-12-18T14:59:05;-4.10;99.90
7296;DHT22;40758;54.038;11.684;2022-12-18T15:01:59;-4.20;99.90
7296;DHT22;40758;54.038;11.684;2022-12-18T15:04:35;-4.30;99.90
7296;DHT22;40758;54.038;11.684;2022-12-18T15:07:14;-4.30;99.90
7296;DHT22;40758;54.038;11.684;2022-12-18T15:10:02;-4.30;99.90
7296;DHT22;40758;54.038;11.684;2022-12-18T15:12:39;-4.40;99.90
7296;DHT22;40758;54.038;11.684;2022-12-18T15:18:33;-4.50;99.90
7296;DHT22;40758;54.038;11.684;2022-12-18T15:21:10;-4.50;99.90
7296;DHT22;40758;54.038;11.684;2022-12-18T15:23:49;-4.50;99.90
7296;DHT22;40758;54.038;11.684;2022-12-18T15:26:25;-4.50;99.90
7296;DHT22;40758;54.038;11.684;2022-12-18T15:28:57;-4.50;99.90
7296;DHT22;40758;54.038;11.684;2022-12-18T15:31:31;-4.50;99.90
7296;DHT22;40758;54.038;11.684;2022-12-18T15:34:19;-4.60;99.90
7296;DHT22;40758;54.038;11.684;2022-12-18T15:36:55;-4.60;99.90
7296;DHT22;40758;54.038;11.684;2022-12-18T15:39:25;-4.60;99.90
7296;DHT22;40758;54.038;11.684;2022-12-18T15:41:56;-4.70;99.90
7296;DHT22;40758;54.038;11.684;2022-12-18T15:44:43;-4.70;99.90
7296;DHT22;40758;54.038;11.684;2022-12-18T15:47:17;-4.70;99.90
7296;DHT22;40758;54.038;11.684;2022-12-18T15:49:47;-4.60;99.90
7296;DHT22;40758;54.038;11.684;2022-12-18T15:52:17;-4.60;99.90
7296;DHT22;40758;54.038;11.684;2022-12-18T15:54:56;-4.60;99.90
7296;DHT22;40758;54.038;11.684;2022-12-18T15:57:42;-4.50;99.90
7296;DHT22;40758;54.038;11.684;2022-12-18T16:00:15;-4.50;99.90
7296;DHT22;40758;54.038;11.684;2022-12-18T16:02:47;-4.50;99.90
7296;DHT22;40758;54.038;11.684;2022-12-18T16:05:18;-4.50;99.90
7296;DHT22;40758;54.038;11.684;2022-12-18T16:07:48;-4.40;99.90
7296;DHT22;40758;54.038;11.684;2022-12-18T16:10:17;-4.40;99.90
7296;DHT22;40758;54.038;11.684;2022-12-18T16:12:48;-4.40;99.90
7296;DHT22;40758;54.038;11.684;2022-12-18T16:15:28;-4.40;99.90
7296;DHT22;40758;54.038;11.684;2022-12-18T16:18:01;-4.40;99.90
7296;DHT22;40758;54.038;11.684;2022-12-18T16:20:30;-4.30;99.90
7296;DHT22;40758;54.038;11.684;2022-12-18T16:23:08;-4.30;99.90
7296;DHT22;40758;54.038;11.684;2022-12-18T16:25:42;-4.30;99.90
7296;DHT22;40758;54.038;11.684;2022-12-18T16:28:10;-4.20;99.90
7296;DHT22;40758;54.038;11.684;2022-12-18T16:30:39;-4.20;99.90
7296;DHT22;40758;54.038;11.684;2022-12-18T16:33:10;-4.30;99.90
7296;DHT22;40758;54.038;11.684;2022-12-18T16:35:39;-4.20;99.90
7296;DHT22;40758;54.038;11.684;2022-12-18T16:38:09;-4.20;99.90